Weather at Davenport Municipal Airport

Public forecast

Using degrees Fahrenheit for public forecast. Weather courtesy of forecast.io.

Current aviation weather report (METAR) for Davenport Municipal Airport

Retrieved 2021/01/25 02:52 UTC (59 minutes ago):

KDVN 250252Z AUTO 04007KT 8SM OVC017 M02/M04 A3010 RMK AO2 SLP200 T10171044 58004

Closest aviation forecast (TAF) to Davenport Municipal Airport

Closest forecast is Quad City International Airport, 10.4 nm (19.2 km) SSE. Retrieved 2021-01-25 00:48 UTC (3 hours ago):

TAF KMLI 242345Z 2500/2524 04006KT P6SM SCT030 FM250600 05013KT P6SM OVC030 FM251900 05016G23KT 2SM -SN BR OVC015 FM252100 05018G26KT 1/2SM SN FG BKN003 OVC009